Time;durP1;ratioP1;P1;durP2;ratioP2;P2;SDS_P1;SDS_P2;PMS_P1;PMS_P2;Temp;Humidity;BMP_temperature;BMP_pressure;BME280_temperature;BME280_humidity;BME280_pressure;Samples;Min_cycle;Max_cycle;Signal;HPM_P1;HPM_P2
2021/03/06 00:00:41;;;;;;;13.23;4.00;;;0.80;99.90;;;;;;5115490;28;20567;-73
2021/03/06 00:03:06;;;;;;;8.13;3.42;;;0.80;99.90;;;;;;5115310;28;20020;-74
2021/03/06 00:05:32;;;;;;;10.77;4.65;;;0.80;99.90;;;;;;5115432;28;20020;-73
2021/03/06 00:07:57;;;;;;;15.98;3.85;;;0.70;99.90;;;;;;5115350;28;20016;-72
2021/03/06 00:10:23;;;;;;;7.03;3.45;;;0.70;99.90;;;;;;5111933;28;20016;-73
2021/03/06 00:12:53;;;;;;;16.80;3.92;;;0.70;99.90;;;;;;5109515;28;20060;-72
2021/03/06 00:15:24;;;;;;;9.68;3.90;;;0.60;99.90;;;;;;5099651;28;20035;-72
2021/03/06 00:17:50;;;;;;;10.88;4.80;;;0.60;99.90;;;;;;5094670;28;20023;-73
2021/03/06 00:20:17;;;;;;;10.75;4.10;;;0.60;99.90;;;;;;5094732;28;20036;-74
2021/03/06 00:22:42;;;;;;;13.75;4.15;;;0.60;99.90;;;;;;5093960;28;20024;-73
2021/03/06 00:25:11;;;;;;;11.85;3.60;;;0.70;99.90;;;;;;5094292;28;20229;-73
2021/03/06 00:27:38;;;;;;;7.93;4.10;;;0.60;99.90;;;;;;5093812;28;20020;-73
2021/03/06 00:30:09;;;;;;;11.77;3.38;;;0.60;99.90;;;;;;5094805;28;20479;-74
2021/03/06 00:32:35;;;;;;;7.00;3.10;;;0.60;99.90;;;;;;5098083;28;20026;-73
2021/03/06 00:35:00;;;;;;;12.70;3.63;;;0.60;99.90;;;;;;5115037;28;20024;-74
2021/03/06 00:37:26;;;;;;;13.52;3.60;;;0.60;99.90;;;;;;5114709;28;20027;-73
2021/03/06 00:39:52;;;;;;;6.93;3.03;;;0.60;99.90;;;;;;5114503;28;20066;-75
2021/03/06 00:42:18;;;;;;;10.55;4.07;;;0.70;99.90;;;;;;5104942;28;20024;-72
2021/03/06 00:44:43;;;;;;;9.93;3.55;;;0.70;99.90;;;;;;5094218;28;20024;-72
2021/03/06 00:47:09;;;;;;;7.45;2.78;;;0.70;99.90;;;;;;5094339;28;20024;-73
2021/03/06 00:49:35;;;;;;;7.63;3.35;;;0.60;99.90;;;;;;5094577;28;20503;-73
2021/03/06 00:52:00;;;;;;;15.68;2.50;;;0.70;99.90;;;;;;5099640;28;20470;-73
2021/03/06 00:54:26;;;;;;;5.68;2.72;;;0.70;99.90;;;;;;5114863;28;20027;-74
2021/03/06 00:56:53;;;;;;;7.47;2.78;;;0.70;99.90;;;;;;5110493;28;20020;-73
2021/03/06 00:59:18;;;;;;;9.00;2.53;;;0.60;99.90;;;;;;5104157;28;20401;-73
2021/03/06 01:01:44;;;;;;;9.35;3.70;;;0.70;99.90;;;;;;5112969;28;20028;-72
2021/03/06 01:04:10;;;;;;;9.07;3.05;;;0.60;99.90;;;;;;5096193;28;20031;-75
2021/03/06 01:06:35;;;;;;;8.60;3.40;;;0.60;99.90;;;;;;5096531;28;20032;-73
2021/03/06 01:09:01;;;;;;;8.95;3.10;;;0.60;99.90;;;;;;5094502;28;20103;-72
2021/03/06 01:11:26;;;;;;;9.02;2.90;;;0.70;99.90;;;;;;5094900;28;20051;-72
2021/03/06 01:13:52;;;;;;;8.93;2.78;;;0.60;99.90;;;;;;5095460;28;20016;-72
2021/03/06 01:16:18;;;;;;;14.95;2.75;;;0.60;99.90;;;;;;5106519;28;20486;-73
2021/03/06 01:18:44;;;;;;;8.88;2.67;;;0.60;99.90;;;;;;5117601;28;20073;-74
2021/03/06 01:21:09;;;;;;;5.20;2.53;;;0.50;99.90;;;;;;5096217;28;20028;-75
2021/03/06 01:23:35;;;;;;;14.60;3.70;;;0.60;99.90;;;;;;5096668;28;20035;-74
2021/03/06 01:26:01;;;;;;;4.57;2.63;;;0.60;99.90;;;;;;5095424;28;20579;-74
2021/03/06 01:28:26;;;;;;;17.10;3.53;;;0.60;99.90;;;;;;5100756;28;20103;-73
2021/03/06 01:30:52;;;;;;;8.93;3.20;;;0.60;99.90;;;;;;5104791;28;20073;-74
2021/03/06 01:33:17;;;;;;;11.10;3.50;;;0.50;99.90;;;;;;5097589;28;20468;-73
2021/03/06 01:35:43;;;;;;;7.45;3.22;;;0.50;99.90;;;;;;5097390;28;20028;-73
2021/03/06 01:38:09;;;;;;;11.00;3.10;;;0.50;99.90;;;;;;5095328;28;20480;-73
2021/03/06 01:40:36;;;;;;;13.05;2.92;;;0.50;99.90;;;;;;5094679;28;20796;-74
2021/03/06 01:43:07;;;;;;;18.27;4.07;;;0.40;99.90;;;;;;5095811;28;20024;-73
2021/03/06 01:45:33;;;;;;;10.98;3.28;;;0.40;99.90;;;;;;5101460;28;20023;-73
2021/03/06 01:47:59;;;;;;;5.80;3.67;;;0.40;99.90;;;;;;5098747;28;20038;-74
2021/03/06 01:50:32;;;;;;;6.53;3.03;;;0.40;99.90;;;;;;5098879;28;20607;-73
2021/03/06 01:53:00;;;;;;;17.33;4.68;;;0.40;99.90;;;;;;5113111;28;20024;-74
2021/03/06 01:55:27;;;;;;;9.23;3.72;;;0.30;99.90;;;;;;5107944;28;20024;-72
2021/03/06 01:57:53;;;;;;;6.10;3.00;;;0.40;99.90;;;;;;5092762;28;20024;-73
2021/03/06 02:00:21;;;;;;;7.57;3.50;;;0.30;99.90;;;;;;5110412;28;20043;-73
2021/03/06 02:02:48;;;;;;;7.22;3.75;;;0.30;99.90;;;;;;5103439;28;20024;-73
2021/03/06 02:05:15;;;;;;;8.70;3.17;;;0.30;99.90;;;;;;5092626;28;20028;-74
2021/03/06 02:07:41;;;;;;;7.75;3.28;;;0.30;99.90;;;;;;5092696;28;20012;-73
2021/03/06 02:10:07;;;;;;;7.32;3.10;;;0.30;99.90;;;;;;5092258;28;20055;-73
2021/03/06 02:12:45;;;;;;;7.65;3.72;;;0.30;99.90;;;;;;5098118;28;20149;-72
2021/03/06 02:15:37;;;;;;;6.03;3.10;;;0.30;99.90;;;;;;5112930;28;20066;-74
2021/03/06 02:18:24;;;;;;;13.18;3.83;;;0.30;99.90;;;;;;5091633;28;20106;-72
2021/03/06 02:20:59;;;;;;;9.80;3.30;;;0.20;99.90;;;;;;5092243;28;20036;-74
2021/03/06 02:24:02;;;;;;;5.85;2.80;;;0.20;99.90;;;;;;5092198;28;20028;-73
2021/03/06 02:26:41;;;;;;;9.85;3.67;;;0.20;99.90;;;;;;5092426;28;20380;-73
2021/03/06 02:29:37;;;;;;;4.00;2.80;;;0.20;99.90;;;;;;5092413;28;20103;-73
2021/03/06 02:32:24;;;;;;;6.18;3.20;;;0.20;99.90;;;;;;5104010;28;20101;-73
2021/03/06 02:34:54;;;;;;;7.38;2.88;;;0.20;99.90;;;;;;5105482;28;20024;-72
2021/03/06 02:37:24;;;;;;;8.10;3.47;;;0.10;99.90;;;;;;5105146;28;20031;-74
2021/03/06 02:39:54;;;;;;;6.70;3.42;;;0.10;99.90;;;;;;5092595;28;20032;-73
2021/03/06 02:42:23;;;;;;;8.27;3.63;;;0.10;99.90;;;;;;5092458;28;20028;-73
2021/03/06 02:44:50;;;;;;;9.85;3.65;;;0.10;99.90;;;;;;5091448;28;20035;-74
2021/03/06 02:47:17;;;;;;;6.18;3.72;;;0.00;99.90;;;;;;5091994;28;20024;-72
2021/03/06 02:49:50;;;;;;;9.93;3.75;;;0.00;99.90;;;;;;5091962;28;20024;-72
2021/03/06 02:52:16;;;;;;;9.85;3.78;;;0.00;99.90;;;;;;5091969;28;20065;-73
2021/03/06 02:54:42;;;;;;;15.13;3.53;;;0.00;99.90;;;;;;5092229;28;20651;-73
2021/03/06 02:57:07;;;;;;;9.57;5.40;;;0.00;99.90;;;;;;5092058;28;20016;-74
2021/03/06 03:00:01;;;;;;;16.70;4.18;;;-0.10;99.90;;;;;;5092275;28;20067;-72
2021/03/06 03:02:30;;;;;;;5.10;3.53;;;0.00;99.90;;;;;;5095122;28;20059;-74
2021/03/06 03:05:17;;;;;;;11.57;4.53;;;-0.10;99.90;;;;;;5118695;28;20045;-73
2021/03/06 03:08:21;;;;;;;10.63;4.30;;;-0.10;99.90;;;;;;5112791;28;20035;-73
2021/03/06 03:10:53;;;;;;;8.73;4.43;;;-0.10;99.90;;;;;;5049954;28;20028;-72
2021/03/06 03:13:28;;;;;;;9.60;3.70;;;-0.10;99.90;;;;;;5089929;28;20036;-73
2021/03/06 03:16:03;;;;;;;8.75;3.70;;;-0.20;99.90;;;;;;5115338;28;20036;-72
2021/03/06 03:18:31;;;;;;;7.75;3.20;;;-0.20;99.90;;;;;;5106669;28;20039;-74
2021/03/06 03:20:59;;;;;;;11.38;3.53;;;-0.20;99.90;;;;;;5094343;28;20040;-74
2021/03/06 03:23:39;;;;;;;11.90;3.72;;;-0.30;99.90;;;;;;5092236;28;20032;-72
2021/03/06 03:26:09;;;;;;;9.15;4.05;;;-0.40;99.90;;;;;;5099961;28;20032;-73
2021/03/06 03:28:37;;;;;;;7.53;2.90;;;-0.40;99.90;;;;;;5111162;28;20093;-73
2021/03/06 03:31:03;;;;;;;8.75;3.95;;;-0.40;99.90;;;;;;5098499;28;20146;-74
2021/03/06 03:33:29;;;;;;;8.65;3.40;;;-0.50;99.90;;;;;;5098618;28;20016;-72
2021/03/06 03:35:56;;;;;;;8.50;3.58;;;-0.50;99.90;;;;;;5092217;28;20024;-73
2021/03/06 03:38:22;;;;;;;6.10;3.47;;;-0.60;99.90;;;;;;5104964;28;20055;-73
2021/03/06 03:40:49;;;;;;;10.95;3.85;;;-0.60;99.90;;;;;;5091119;28;20417;-72
2021/03/06 03:43:15;;;;;;;8.25;3.03;;;-0.60;99.90;;;;;;5091421;28;20061;-73
2021/03/06 03:45:41;;;;;;;6.82;3.63;;;-0.60;99.90;;;;;;5091869;28;20426;-73
2021/03/06 03:48:08;;;;;;;6.25;3.38;;;-0.60;99.90;;;;;;5105049;28;20031;-74
2021/03/06 03:50:33;;;;;;;6.78;3.50;;;-0.70;99.90;;;;;;5091755;28;20021;-72
2021/03/06 03:52:59;;;;;;;7.47;3.08;;;-0.70;99.90;;;;;;5091494;28;20031;-74
2021/03/06 03:55:25;;;;;;;7.50;2.80;;;-0.70;99.90;;;;;;5091488;28;20093;-73
2021/03/06 03:57:51;;;;;;;4.20;2.63;;;-0.70;99.90;;;;;;5106031;28;20020;-72
2021/03/06 04:00:19;;;;;;;5.88;3.30;;;-0.80;99.90;;;;;;5112670;28;20055;-72
2021/03/06 04:02:47;;;;;;;4.45;3.38;;;-0.80;99.90;;;;;;5113580;28;20160;-72
2021/03/06 04:05:14;;;;;;;10.73;3.15;;;-0.90;99.90;;;;;;5115083;28;20047;-73
2021/03/06 04:07:47;;;;;;;4.43;2.78;;;-0.90;99.90;;;;;;5115707;28;20027;-71
2021/03/06 04:10:15;;;;;;;6.72;2.58;;;-0.90;99.90;;;;;;5114425;27;20098;-72
2021/03/06 04:12:41;;;;;;;3.42;2.40;;;-0.90;99.90;;;;;;5114998;28;20012;-74
2021/03/06 04:15:09;;;;;;;4.95;2.70;;;-0.90;99.90;;;;;;5104114;28;20034;-73
2021/03/06 04:17:35;;;;;;;7.65;2.70;;;-1.00;99.90;;;;;;5114533;28;20028;-73
2021/03/06 04:20:03;;;;;;;5.20;2.97;;;-1.00;99.90;;;;;;5114940;28;20039;-73
2021/03/06 04:22:29;;;;;;;5.57;2.65;;;-1.00;99.90;;;;;;5115324;28;20020;-73
2021/03/06 04:24:54;;;;;;;4.32;2.35;;;-1.00;99.90;;;;;;5101950;27;20403;-72
2021/03/06 04:27:20;;;;;;;2.75;2.22;;;-1.00;99.90;;;;;;5094698;28;20012;-73
2021/03/06 04:29:45;;;;;;;5.70;2.58;;;-1.10;99.90;;;;;;5094531;28;20030;-73
2021/03/06 04:32:11;;;;;;;6.20;2.85;;;-1.10;99.90;;;;;;5094106;28;20463;-73
2021/03/06 04:34:36;;;;;;;4.15;2.80;;;-1.20;99.90;;;;;;5098028;28;20019;-73
2021/03/06 04:37:02;;;;;;;5.60;2.38;;;-1.20;99.90;;;;;;5110141;28;20040;-72
2021/03/06 04:39:27;;;;;;;3.80;2.47;;;-1.20;99.90;;;;;;5114731;28;20035;-73
2021/03/06 04:41:53;;;;;;;4.55;2.30;;;-1.20;99.90;;;;;;5106592;28;20356;-73
2021/03/06 04:44:18;;;;;;;2.35;1.90;;;-1.30;99.90;;;;;;5094309;28;20077;-71
2021/03/06 04:46:44;;;;;;;3.05;2.45;;;-1.30;99.90;;;;;;5094612;28;20016;-74
2021/03/06 04:49:10;;;;;;;5.75;2.78;;;-1.30;99.90;;;;;;5094333;28;20375;-72
2021/03/06 04:51:35;;;;;;;5.28;2.92;;;-1.30;99.90;;;;;;5093656;28;20017;-72
2021/03/06 04:54:01;;;;;;;8.95;4.03;;;-1.30;99.90;;;;;;5093917;28;20025;-73
2021/03/06 04:56:27;;;;;;;4.15;2.90;;;-1.30;99.90;;;;;;5094207;28;20024;-74
2021/03/06 04:58:54;;;;;;;4.82;2.90;;;-1.30;99.90;;;;;;5094014;28;20024;-73
2021/03/06 05:01:19;;;;;;;7.30;3.22;;;-1.30;99.90;;;;;;5094258;28;20044;-73
2021/03/06 05:03:45;;;;;;;10.65;5.53;;;-1.40;99.90;;;;;;5102326;28;20035;-74
2021/03/06 05:06:11;;;;;;;6.35;3.53;;;-1.30;99.90;;;;;;5095776;28;20067;-73
2021/03/06 05:08:39;;;;;;;7.55;3.58;;;-1.30;99.90;;;;;;5094556;28;20050;-73
2021/03/06 05:11:05;;;;;;;3.40;2.92;;;-1.30;99.90;;;;;;5094597;28;20116;-74
2021/03/06 05:13:31;;;;;;;9.30;3.40;;;-1.30;99.90;;;;;;5103099;28;20032;-73
2021/03/06 05:15:56;;;;;;;7.07;2.67;;;-1.30;99.90;;;;;;5096829;28;20035;-72
2021/03/06 05:18:22;;;;;;;2.72;2.40;;;-1.30;99.90;;;;;;5101647;28;20020;-72
2021/03/06 05:20:47;;;;;;;3.08;2.70;;;-1.40;99.90;;;;;;5093993;28;20376;-73
2021/03/06 05:23:13;;;;;;;4.88;2.83;;;-1.40;99.90;;;;;;5093315;28;20024;-74
2021/03/06 05:25:38;;;;;;;4.78;2.78;;;-1.50;99.90;;;;;;5093799;28;20107;-72
2021/03/06 05:28:04;;;;;;;9.80;3.00;;;-1.50;99.90;;;;;;5103991;28;20030;-73
2021/03/06 05:30:30;;;;;;;5.68;3.20;;;-1.50;99.90;;;;;;5114421;28;20499;-73
2021/03/06 05:32:55;;;;;;;6.32;2.90;;;-1.50;99.90;;;;;;5105319;28;20028;-72
2021/03/06 05:35:21;;;;;;;2.75;2.47;;;-1.50;99.90;;;;;;5109537;28;20030;-73
2021/03/06 05:37:46;;;;;;;3.53;2.28;;;-1.60;99.90;;;;;;5099156;28;20024;-74
2021/03/06 05:40:15;;;;;;;4.88;2.33;;;-1.60;99.90;;;;;;5092691;28;20512;-72
2021/03/06 05:42:41;;;;;;;2.17;2.08;;;-1.60;99.90;;;;;;5093426;28;20024;-73
2021/03/06 05:45:08;;;;;;;3.40;2.05;;;-1.70;99.90;;;;;;5093276;28;20024;-72
2021/03/06 05:47:33;;;;;;;5.95;2.28;;;-1.60;99.90;;;;;;5106100;28;20034;-73
2021/03/06 05:50:00;;;;;;;3.13;2.45;;;-1.70;99.90;;;;;;5113038;28;20031;-72
2021/03/06 05:52:27;;;;;;;4.03;2.33;;;-1.70;99.90;;;;;;5113435;28;20356;-73
2021/03/06 05:54:56;;;;;;;4.22;2.80;;;-1.70;99.90;;;;;;5112926;28;20421;-72
2021/03/06 05:57:22;;;;;;;4.68;3.88;;;-1.70;99.90;;;;;;5113524;28;20436;-72
2021/03/06 05:59:49;;;;;;;5.47;3.38;;;-1.70;99.90;;;;;;5097071;28;20048;-73
2021/03/06 06:02:19;;;;;;;12.50;4.07;;;-1.60;99.90;;;;;;5092476;28;20046;-72
2021/03/06 06:04:46;;;;;;;5.55;4.35;;;-1.50;99.90;;;;;;5092787;28;20028;-72
2021/03/06 06:07:17;;;;;;;4.93;3.88;;;-1.50;99.90;;;;;;5092568;28;20043;-73
2021/03/06 06:09:44;;;;;;;11.20;4.38;;;-1.50;99.90;;;;;;5092202;28;20016;-72
2021/03/06 06:12:10;;;;;;;3.70;3.22;;;-1.50;99.90;;;;;;5092577;28;20036;-72
2021/03/06 06:14:36;;;;;;;4.97;3.92;;;-1.50;99.90;;;;;;5092871;28;20031;-73
2021/03/06 06:17:09;;;;;;;5.68;2.92;;;-1.60;99.90;;;;;;5091772;28;20478;-72
2021/03/06 06:19:35;;;;;;;2.90;2.60;;;-1.70;99.90;;;;;;5092769;28;20046;-73
2021/03/06 06:22:15;;;;;;;5.50;2.83;;;-1.70;99.90;;;;;;5092375;28;20049;-73
2021/03/06 06:24:45;;;;;;;3.10;2.58;;;-1.80;99.90;;;;;;5092103;28;20032;-73
2021/03/06 06:27:12;;;;;;;3.60;2.53;;;-1.80;99.90;;;;;;5092535;28;20017;-73
2021/03/06 06:29:40;;;;;;;6.85;3.15;;;-1.90;99.90;;;;;;5101832;28;20464;-73
2021/03/06 06:32:08;;;;;;;5.32;3.05;;;-1.90;99.90;;;;;;5112351;28;20023;-73
2021/03/06 06:34:36;;;;;;;2.95;2.30;;;-1.80;99.90;;;;;;5101750;28;21254;-73
2021/03/06 06:37:15;;;;;;;4.75;2.70;;;-1.80;99.90;;;;;;5108691;28;20031;-74
2021/03/06 06:39:43;;;;;;;2.95;2.63;;;-1.80;99.90;;;;;;5108255;28;20453;-72
2021/03/06 06:42:09;;;;;;;3.75;2.55;;;-1.80;99.90;;;;;;5107618;28;20016;-72
2021/03/06 06:44:36;;;;;;;2.25;2.05;;;-1.80;99.90;;;;;;5108025;28;20072;-71
2021/03/06 06:47:18;;;;;;;2.75;2.13;;;-1.70;99.90;;;;;;5111012;28;20371;-72
2021/03/06 06:49:46;;;;;;;3.30;2.42;;;-1.80;99.90;;;;;;5110313;28;20059;-72
2021/03/06 06:52:11;;;;;;;4.35;2.78;;;-1.80;99.90;;;;;;5109517;28;20034;-72
2021/03/06 06:54:37;;;;;;;6.07;3.33;;;-1.70;99.90;;;;;;5109720;28;20099;-71
2021/03/06 06:57:10;;;;;;;5.57;3.70;;;-1.60;99.90;;;;;;5107655;28;20031;-72
2021/03/06 06:59:51;;;;;;;5.30;4.40;;;-1.60;99.90;;;;;;5105529;28;20059;-72
2021/03/06 07:02:17;;;;;;;5.95;4.18;;;-1.40;99.90;;;;;;5112303;28;20031;-72
2021/03/06 07:05:01;;;;;;;7.60;4.90;;;-1.20;99.90;;;;;;5114564;28;20058;-72
2021/03/06 07:07:39;;;;;;;6.53;4.72;;;-1.10;99.90;;;;;;5104576;28;20458;-72
2021/03/06 07:10:11;;;;;;;9.25;5.03;;;-0.90;99.90;;;;;;5092047;28;20036;-72
2021/03/06 07:12:39;;;;;;;9.90;5.32;;;-0.70;99.90;;;;;;5097181;28;20379;-70
2021/03/06 07:15:25;;;;;;;9.57;5.80;;;-0.70;99.90;;;;;;5103501;28;20399;-74
2021/03/06 07:17:53;;;;;;;6.63;5.38;;;-0.50;99.90;;;;;;5101896;28;20027;-72
2021/03/06 07:20:22;;;;;;;11.23;6.68;;;-0.40;99.90;;;;;;5102638;28;20064;-72
2021/03/06 07:22:49;;;;;;;13.98;5.75;;;-0.30;99.90;;;;;;5097175;28;20016;-72
2021/03/06 07:25:15;;;;;;;12.07;5.72;;;-0.20;99.90;;;;;;5091636;28;20034;-72
2021/03/06 07:27:44;;;;;;;13.52;6.60;;;-0.10;99.90;;;;;;5090327;28;20013;-72
2021/03/06 07:30:12;;;;;;;16.98;7.07;;;0.00;99.90;;;;;;5090811;28;20070;-72
2021/03/06 07:32:40;;;;;;;13.13;5.80;;;0.10;99.90;;;;;;5090237;28;20024;-72
2021/03/06 07:35:09;;;;;;;9.27;5.68;;;0.20;99.90;;;;;;5090529;28;20115;-72
2021/03/06 07:37:36;;;;;;;11.25;4.90;;;0.30;99.90;;;;;;5095158;28;20081;-73
2021/03/06 07:40:04;;;;;;;12.27;4.97;;;0.40;99.90;;;;;;5095959;28;20040;-72
2021/03/06 07:42:54;;;;;;;9.98;5.05;;;0.50;99.90;;;;;;5095096;28;20471;-72
2021/03/06 07:45:25;;;;;;;16.53;5.23;;;0.60;99.90;;;;;;5094920;28;20040;-71
2021/03/06 07:48:13;;;;;;;10.38;5.60;;;0.70;99.90;;;;;;5093762;28;20035;-72
2021/03/06 07:50:42;;;;;;;12.30;5.43;;;0.80;99.90;;;;;;5095946;28;20556;-72
2021/03/06 07:53:08;;;;;;;18.80;6.43;;;0.90;99.90;;;;;;5097749;28;20052;-72
2021/03/06 07:55:35;;;;;;;14.13;6.82;;;1.00;99.90;;;;;;5094396;28;20074;-72
2021/03/06 07:58:08;;;;;;;12.40;6.30;;;1.00;99.90;;;;;;5098102;28;20043;-72
2021/03/06 08:00:59;;;;;;;16.55;5.95;;;1.10;99.90;;;;;;5094132;28;20492;-72
2021/03/06 08:03:29;;;;;;;12.65;5.15;;;1.20;99.90;;;;;;5110661;28;20035;-72
2021/03/06 08:06:25;;;;;;;8.90;4.85;;;1.30;99.90;;;;;;5113944;28;20028;-72
2021/03/06 08:08:51;;;;;;;9.57;4.20;;;1.30;99.90;;;;;;5091804;28;20032;-72
2021/03/06 08:11:18;;;;;;;10.50;3.90;;;1.40;99.90;;;;;;5095014;28;20023;-72
2021/03/06 08:14:06;;;;;;;9.70;3.88;;;1.50;99.90;;;;;;5100247;28;20490;-72
2021/03/06 08:16:33;;;;;;;9.77;3.45;;;1.50;99.90;;;;;;5104857;28;20109;-76
2021/03/06 08:19:12;;;;;;;11.30;4.43;;;1.60;99.90;;;;;;5094247;28;20036;-74
2021/03/06 08:21:44;;;;;;;5.57;3.95;;;1.60;99.90;;;;;;5106574;28;20051;-75
2021/03/06 08:24:13;;;;;;;7.57;3.63;;;1.70;99.90;;;;;;5108678;28;20438;-76
2021/03/06 08:27:02;;;;;;;15.50;5.32;;;1.80;99.90;;;;;;5114242;28;20374;-76
2021/03/06 08:29:27;;;;;;;10.80;4.60;;;1.90;99.90;;;;;;5106591;28;20107;-77
2021/03/06 08:31:54;;;;;;;7.70;3.80;;;2.60;99.90;;;;;;5111751;28;20095;-76
2021/03/06 08:34:36;;;;;;;9.90;3.72;;;2.00;99.90;;;;;;5094369;28;20140;-76
2021/03/06 08:37:13;;;;;;;9.13;4.10;;;2.10;99.90;;;;;;5093385;28;20020;-75
2021/03/06 08:40:08;;;;;;;8.18;3.58;;;2.20;99.90;;;;;;5094194;28;20067;-76
2021/03/06 08:42:51;;;;;;;20.92;4.03;;;2.30;99.90;;;;;;5097779;28;20028;-75
2021/03/06 08:45:28;;;;;;;9.27;3.80;;;2.40;99.90;;;;;;5104908;28;20059;-74
2021/03/06 08:48:02;;;;;;;9.38;3.13;;;2.50;99.90;;;;;;5111581;28;20028;-75
2021/03/06 08:50:29;;;;;;;13.88;4.78;;;2.50;99.90;;;;;;5113721;28;20039;-76
2021/03/06 08:53:11;;;;;;;9.18;3.42;;;2.60;99.90;;;;;;5107498;28;20020;-75
2021/03/06 08:55:40;;;;;;;4.55;2.38;;;2.70;99.90;;;;;;5106001;28;20030;-76
2021/03/06 08:58:10;;;;;;;12.43;3.25;;;2.80;99.90;;;;;;5106018;28;20069;-75
2021/03/06 09:00:56;;;;;;;7.28;3.15;;;2.90;99.90;;;;;;5104786;28;20067;-74
2021/03/06 09:03:24;;;;;;;14.95;3.50;;;3.00;99.90;;;;;;5105717;28;20080;-75
2021/03/06 09:05:57;;;;;;;5.68;3.00;;;3.00;99.90;;;;;;5111419;28;20375;-75
2021/03/06 09:08:27;;;;;;;11.63;4.65;;;3.10;99.90;;;;;;5106980;27;20022;-75
2021/03/06 09:10:58;;;;;;;6.30;2.70;;;3.20;99.90;;;;;;5095743;28;20153;-76
2021/03/06 09:13:27;;;;;;;7.72;2.65;;;3.20;99.90;;;;;;5093914;28;20104;-76
2021/03/06 09:16:04;;;;;;;8.90;2.47;;;3.30;99.90;;;;;;5093950;28;20499;-76
2021/03/06 09:18:34;;;;;;;6.68;2.58;;;3.40;99.90;;;;;;5096380;28;20353;-76
2021/03/06 09:21:11;;;;;;;9.93;3.00;;;3.40;99.90;;;;;;5102920;28;20036;-76
2021/03/06 09:23:39;;;;;;;6.75;2.40;;;3.60;99.90;;;;;;5097079;28;20084;-75
2021/03/06 09:26:16;;;;;;;9.77;2.47;;;3.70;99.90;;;;;;5095653;28;20036;-76
2021/03/06 09:28:43;;;;;;;3.78;2.25;;;3.80;99.90;;;;;;5114324;28;20422;-76
2021/03/06 09:31:14;;;;;;;7.50;2.15;;;3.80;99.90;;;;;;5100948;28;20040;-76
2021/03/06 09:33:41;;;;;;;4.35;1.85;;;4.00;99.90;;;;;;5096665;28;20043;-75
2021/03/06 09:36:07;;;;;;;5.13;1.75;;;4.00;99.90;;;;;;5101982;28;20488;-75
2021/03/06 09:38:34;;;;;;;3.28;1.63;;;4.10;99.90;;;;;;5109445;28;20062;-74
2021/03/06 09:41:00;;;;;;;10.75;3.60;;;4.20;99.90;;;;;;5100250;28;20040;-74
2021/03/06 09:43:28;;;;;;;7.65;2.50;;;4.20;99.90;;;;;;5103006;28;20020;-75
2021/03/06 09:45:55;;;;;;;8.90;2.83;;;4.30;99.90;;;;;;5099002;28;20031;-78
2021/03/06 09:48:21;;;;;;;13.95;2.40;;;4.30;99.90;;;;;;5109036;28;20020;-72
2021/03/06 09:50:47;;;;;;;6.95;2.08;;;4.50;99.90;;;;;;5114973;28;20024;-75
2021/03/06 09:53:21;;;;;;;7.60;2.33;;;4.60;99.90;;;;;;5118596;28;20022;-76
2021/03/06 09:56:00;;;;;;;10.15;2.30;;;4.70;99.90;;;;;;5098496;28;20054;-76
2021/03/06 09:58:26;;;;;;;9.13;1.70;;;4.80;99.90;;;;;;5093843;28;20406;-75
2021/03/06 10:00:52;;;;;;;10.23;2.03;;;4.90;99.90;;;;;;5091176;28;20112;-75
2021/03/06 10:03:32;;;;;;;4.43;1.95;;;5.10;99.90;;;;;;5107662;28;20012;-76
2021/03/06 10:06:00;;;;;;;7.38;1.55;;;5.20;99.90;;;;;;5096621;28;20032;-76
2021/03/06 10:08:28;;;;;;;2.42;1.42;;;5.30;99.90;;;;;;5112307;28;20089;-76
2021/03/06 10:10:54;;;;;;;4.22;1.77;;;5.50;99.90;;;;;;5102355;28;20019;-74
2021/03/06 10:13:20;;;;;;;8.90;1.52;;;5.50;99.90;;;;;;5103626;28;20028;-75
2021/03/06 10:15:46;;;;;;;9.02;1.42;;;5.60;99.90;;;;;;5099906;28;20023;-75
2021/03/06 10:18:12;;;;;;;4.85;1.30;;;5.80;99.90;;;;;;5100244;28;20032;-75
2021/03/06 10:20:39;;;;;;;7.10;1.30;;;5.90;99.90;;;;;;5104510;28;20036;-75
2021/03/06 10:23:04;;;;;;;5.15;1.60;;;5.80;99.90;;;;;;5099162;28;20365;-76
2021/03/06 10:25:30;;;;;;;7.50;2.38;;;5.80;99.90;;;;;;5108585;28;20027;-74
2021/03/06 10:27:56;;;;;;;7.80;1.77;;;5.80;99.90;;;;;;5112649;28;20031;-75
2021/03/06 10:30:23;;;;;;;5.75;1.25;;;5.70;99.90;;;;;;5112252;28;20640;-77
2021/03/06 10:32:56;;;;;;;3.67;1.02;;;5.50;99.90;;;;;;5112198;28;20127;-76
2021/03/06 10:35:46;;;;;;;10.35;1.55;;;5.60;99.90;;;;;;5112566;28;20034;-77
2021/03/06 10:38:30;;;;;;;2.80;1.15;;;5.60;99.90;;;;;;5112511;28;20491;-75
2021/03/06 10:41:00;;;;;;;5.88;1.40;;;5.50;99.90;;;;;;5112508;28;20044;-77
2021/03/06 10:43:39;;;;;;;7.20;1.00;;;5.60;99.90;;;;;;5111975;28;20026;-77
2021/03/06 10:46:13;;;;;;;8.15;0.95;;;5.50;99.90;;;;;;5111269;28;20047;-75
2021/03/06 10:48:40;;;;;;;6.35;1.08;;;5.60;99.90;;;;;;5104593;28;20070;-75
2021/03/06 10:51:07;;;;;;;2.83;1.13;;;5.70;99.90;;;;;;5111150;28;20034;-73
2021/03/06 10:53:33;;;;;;;8.05;1.38;;;5.70;99.90;;;;;;5096723;28;20032;-74
2021/03/06 10:56:01;;;;;;;10.10;1.35;;;5.80;99.90;;;;;;5092357;28;20023;-75
2021/03/06 10:58:46;;;;;;;3.15;1.20;;;5.90;99.90;;;;;;5098564;28;20136;-76
2021/03/06 11:01:15;;;;;;;2.38;0.88;;;5.90;99.90;;;;;;5104557;28;20399;-74
2021/03/06 11:03:42;;;;;;;2.22;0.88;;;6.00;99.90;;;;;;5104312;28;20023;-75
2021/03/06 11:06:08;;;;;;;6.13;1.30;;;6.00;99.90;;;;;;5100011;28;20028;-76
2021/03/06 11:08:34;;;;;;;7.60;1.58;;;6.00;99.90;;;;;;5095164;28;20077;-75
2021/03/06 11:11:01;;;;;;;5.88;1.50;;;6.00;99.90;;;;;;5106505;28;20093;-75
2021/03/06 11:13:44;;;;;;;9.43;1.45;;;6.10;99.90;;;;;;5101152;28;20035;-75
2021/03/06 11:16:11;;;;;;;5.03;0.82;;;6.20;99.90;;;;;;5106505;28;20410;-75
2021/03/06 11:18:40;;;;;;;6.78;0.88;;;6.20;99.90;;;;;;5110260;28;20110;-75
2021/03/06 11:21:08;;;;;;;3.35;0.50;;;6.20;99.90;;;;;;5104037;28;20588;-75
2021/03/06 11:23:34;;;;;;;4.65;0.80;;;6.30;99.90;;;;;;5104035;28;20073;-75
2021/03/06 11:26:00;;;;;;;1.75;0.80;;;6.30;99.90;;;;;;5097345;28;20024;-74
2021/03/06 11:28:28;;;;;;;6.32;0.95;;;6.20;99.90;;;;;;5094298;28;20047;-74
2021/03/06 11:30:54;;;;;;;3.92;1.00;;;6.20;99.90;;;;;;5098177;28;20502;-75
2021/03/06 11:33:20;;;;;;;4.55;1.60;;;6.30;99.90;;;;;;5104209;28;20044;-75
2021/03/06 11:35:47;;;;;;;6.47;2.45;;;6.20;99.80;;;;;;5099276;28;20031;-75
2021/03/06 11:38:15;;;;;;;4.72;1.30;;;6.20;99.90;;;;;;5097214;28;20024;-76
2021/03/06 11:40:44;;;;;;;3.13;0.90;;;6.20;99.90;;;;;;5110046;28;20036;-76
2021/03/06 11:43:10;;;;;;;6.88;0.75;;;6.20;99.40;;;;;;5098388;28;20032;-76
2021/03/06 11:45:35;;;;;;;2.70;0.85;;;6.10;99.80;;;;;;5104680;28;20540;-77
2021/03/06 11:48:01;;;;;;;2.35;0.60;;;6.00;99.90;;;;;;5096509;28;20028;-78
2021/03/06 11:50:30;;;;;;;1.67;0.70;;;6.00;99.90;;;;;;5098954;28;20030;-75
2021/03/06 11:52:57;;;;;;;2.38;0.60;;;5.80;99.90;;;;;;5094877;28;20082;-76
2021/03/06 11:55:22;;;;;;;0.95;0.60;;;5.70;99.80;;;;;;5100441;28;20076;-76
2021/03/06 11:57:48;;;;;;;1.00;0.70;;;5.60;99.90;;;;;;5103460;28;20432;-77
2021/03/06 12:00:16;;;;;;;6.38;1.10;;;5.60;99.90;;;;;;5101874;28;20495;-75
2021/03/06 12:02:42;;;;;;;3.42;0.93;;;5.70;99.90;;;;;;5096175;28;20398;-76
2021/03/06 12:05:09;;;;;;;0.88;0.68;;;5.90;99.90;;;;;;5088926;28;20031;-76
2021/03/06 12:07:35;;;;;;;2.53;0.82;;;6.00;99.90;;;;;;5105045;28;20058;-76
2021/03/06 12:10:02;;;;;;;1.13;0.70;;;6.10;99.90;;;;;;5101573;28;20052;-76
2021/03/06 12:12:28;;;;;;;4.95;0.80;;;6.30;99.90;;;;;;5104380;28;20027;-76
2021/03/06 12:14:54;;;;;;;1.48;0.40;;;6.50;99.90;;;;;;5093876;28;20028;-75
2021/03/06 12:17:19;;;;;;;5.00;1.25;;;6.80;99.50;;;;;;5110506;28;20043;-76
2021/03/06 12:19:45;;;;;;;3.58;1.10;;;7.10;98.80;;;;;;5106181;28;20027;-75
2021/03/06 12:22:10;;;;;;;3.72;0.77;;;7.30;98.70;;;;;;5104054;28;20046;-76
2021/03/06 12:24:36;;;;;;;2.67;1.02;;;7.60;98.30;;;;;;5107376;28;20020;-76
2021/03/06 12:27:02;;;;;;;0.85;0.70;;;7.70;97.30;;;;;;5102851;28;20104;-75
2021/03/06 12:29:27;;;;;;;3.65;1.10;;;7.80;96.40;;;;;;5107018;28;20471;-75
2021/03/06 12:31:53;;;;;;;2.10;0.90;;;7.70;95.10;;;;;;5100694;28;20042;-76
2021/03/06 12:34:19;;;;;;;7.28;2.33;;;7.80;94.40;;;;;;5103976;28;20107;-76
2021/03/06 12:36:45;;;;;;;5.45;2.60;;;7.80;92.60;;;;;;5103209;28;20017;-75
2021/03/06 12:39:10;;;;;;;6.10;1.13;;;7.90;92.60;;;;;;5095831;28;20066;-75
2021/03/06 12:41:39;;;;;;;0.82;0.50;;;8.00;92.20;;;;;;5104247;28;20048;-76
2021/03/06 12:44:06;;;;;;;2.53;0.70;;;8.10;92.20;;;;;;5104157;28;20050;-76
2021/03/06 12:46:32;;;;;;;3.58;0.88;;;8.30;92.10;;;;;;5106209;28;20050;-75
2021/03/06 12:49:01;;;;;;;0.80;0.77;;;8.40;89.90;;;;;;5102979;28;20027;-75
2021/03/06 12:51:27;;;;;;;2.00;0.63;;;8.50;88.40;;;;;;5105684;28;20055;-74
2021/03/06 12:53:52;;;;;;;1.70;0.73;;;8.60;88.40;;;;;;5096064;28;20028;-75
2021/03/06 12:56:18;;;;;;;5.70;0.60;;;8.70;87.50;;;;;;5099604;28;20057;-75
2021/03/06 12:58:45;;;;;;;1.92;0.80;;;8.70;86.10;;;;;;5107421;28;20486;-75
2021/03/06 13:01:11;;;;;;;2.42;0.90;;;8.80;86.90;;;;;;5108460;28;20126;-75